sensor_id;sensor_type;location;lat;lon;timestamp;pressure;altitude;pressure_sealevel;temperature;humidity
34506;BME280;20748;42.632;23.198;2023-05-02T00:00:58;92320.50;;;7.48;100.00
34506;BME280;20748;42.632;23.198;2023-05-02T00:03:33;92329.63;;;7.40;100.00
34506;BME280;20748;42.632;23.198;2023-05-02T00:06:06;92332.84;;;7.27;100.00
34506;BME280;20748;42.632;23.198;2023-05-02T00:08:38;92333.06;;;7.35;100.00
34506;BME280;20748;42.632;23.198;2023-05-02T00:11:11;92336.38;;;7.41;100.00
34506;BME280;20748;42.632;23.198;2023-05-02T00:13:45;92333.25;;;7.44;99.30
34506;BME280;20748;42.632;23.198;2023-05-02T00:16:17;92340.25;;;7.44;100.00
34506;BME280;20748;42.632;23.198;2023-05-02T00:18:50;92340.78;;;7.46;99.62
34506;BME280;20748;42.632;23.198;2023-05-02T00:21:22;92349.09;;;7.43;100.00
34506;BME280;20748;42.632;23.198;2023-05-02T00:23:54;92349.34;;;7.41;99.61
34506;BME280;20748;42.632;23.198;2023-05-02T00:26:28;92351.72;;;7.37;99.98
34506;BME280;20748;42.632;23.198;2023-05-02T00:29:01;92343.97;;;7.32;99.85
34506;BME280;20748;42.632;23.198;2023-05-02T00:31:33;92343.19;;;7.32;99.90
34506;BME280;20748;42.632;23.198;2023-05-02T00:34:06;92356.50;;;7.20;100.00
34506;BME280;20748;42.632;23.198;2023-05-02T00:36:39;92361.41;;;7.21;100.00
34506;BME280;20748;42.632;23.198;2023-05-02T00:39:11;92364.78;;;7.27;100.00
34506;BME280;20748;42.632;23.198;2023-05-02T00:41:44;92364.47;;;7.34;99.59
34506;BME280;20748;42.632;23.198;2023-05-02T00:44:16;92373.59;;;7.26;99.09
34506;BME280;20748;42.632;23.198;2023-05-02T00:46:49;92365.09;;;7.10;99.93
34506;BME280;20748;42.632;23.198;2023-05-02T00:49:22;92366.97;;;7.04;99.86
34506;BME280;20748;42.632;23.198;2023-05-02T00:51:54;92355.78;;;7.09;99.88
34506;BME280;20748;42.632;23.198;2023-05-02T00:54:26;92353.19;;;7.09;98.82
34506;BME280;20748;42.632;23.198;2023-05-02T00:57:00;92353.97;;;7.04;99.67
34506;BME280;20748;42.632;23.198;2023-05-02T00:59:34;92342.84;;;6.98;100.00
34506;BME280;20748;42.632;23.198;2023-05-02T01:02:21;92353.44;;;7.07;100.00
34506;BME280;20748;42.632;23.198;2023-05-02T01:05:01;92343.84;;;7.08;100.00
34506;BME280;20748;42.632;23.198;2023-05-02T01:07:55;92340.19;;;7.09;100.00
34506;BME280;20748;42.632;23.198;2023-05-02T01:10:43;92334.78;;;7.05;100.00
34506;BME280;20748;42.632;23.198;2023-05-02T01:13:23;92329.09;;;6.98;100.00
34506;BME280;20748;42.632;23.198;2023-05-02T01:15:59;92326.28;;;6.89;100.00
34506;BME280;20748;42.632;23.198;2023-05-02T01:18:34;92324.94;;;6.97;100.00
34506;BME280;20748;42.632;23.198;2023-05-02T01:21:09;92331.41;;;7.05;100.00
34506;BME280;20748;42.632;23.198;2023-05-02T01:23:47;92332.22;;;6.95;100.00
34506;BME280;20748;42.632;23.198;2023-05-02T01:26:29;92339.03;;;6.80;100.00
34506;BME280;20748;42.632;23.198;2023-05-02T01:29:05;92340.88;;;6.69;100.00
34506;BME280;20748;42.632;23.198;2023-05-02T01:31:41;92343.47;;;6.64;100.00
34506;BME280;20748;42.632;23.198;2023-05-02T01:34:17;92345.31;;;6.64;100.00
34506;BME280;20748;42.632;23.198;2023-05-02T01:36:51;92337.56;;;6.58;100.00
34506;BME280;20748;42.632;23.198;2023-05-02T01:39:26;92338.84;;;6.61;100.00
34506;BME280;20748;42.632;23.198;2023-05-02T01:42:01;92339.09;;;6.60;100.00
34506;BME280;20748;42.632;23.198;2023-05-02T01:44:35;92339.59;;;6.62;100.00
34506;BME280;20748;42.632;23.198;2023-05-02T01:47:08;92327.69;;;6.55;100.00
34506;BME280;20748;42.632;23.198;2023-05-02T01:49:42;92335.75;;;6.59;100.00
34506;BME280;20748;42.632;23.198;2023-05-02T01:52:15;92340.72;;;6.45;100.00
34506;BME280;20748;42.632;23.198;2023-05-02T01:54:52;92338.38;;;6.43;100.00
34506;BME280;20748;42.632;23.198;2023-05-02T01:57:26;92333.69;;;6.45;100.00
34506;BME280;20748;42.632;23.198;2023-05-02T01:59:59;92340.94;;;6.54;100.00
34506;BME280;20748;42.632;23.198;2023-05-02T02:02:45;92341.47;;;6.45;100.00
34506;BME280;20748;42.632;23.198;2023-05-02T02:05:19;92330.34;;;6.45;100.00
34506;BME280;20748;42.632;23.198;2023-05-02T02:07:53;92331.09;;;6.45;100.00
34506;BME280;20748;42.632;23.198;2023-05-02T02:10:28;92336.53;;;6.44;100.00
34506;BME280;20748;42.632;23.198;2023-05-02T02:13:06;92327.78;;;6.29;100.00
34506;BME280;20748;42.632;23.198;2023-05-02T02:15:46;92336.56;;;6.39;100.00
34506;BME280;20748;42.632;23.198;2023-05-02T02:18:22;92330.34;;;6.45;100.00
34506;BME280;20748;42.632;23.198;2023-05-02T02:20:58;92329.28;;;6.51;100.00
34506;BME280;20748;42.632;23.198;2023-05-02T02:23:32;92333.19;;;6.38;100.00
34506;BME280;20748;42.632;23.198;2023-05-02T02:26:06;92333.22;;;6.23;100.00
34506;BME280;20748;42.632;23.198;2023-05-02T02:28:40;92338.94;;;6.25;100.00
34506;BME280;20748;42.632;23.198;2023-05-02T02:31:14;92341.25;;;6.26;100.00
34506;BME280;20748;42.632;23.198;2023-05-02T02:33:47;92348.50;;;6.19;100.00
34506;BME280;20748;42.632;23.198;2023-05-02T02:36:23;92347.22;;;6.11;100.00
34506;BME280;20748;42.632;23.198;2023-05-02T02:39:11;92351.41;;;6.12;100.00
34506;BME280;20748;42.632;23.198;2023-05-02T02:41:50;92345.94;;;6.19;100.00
34506;BME280;20748;42.632;23.198;2023-05-02T02:44:37;92351.38;;;6.17;100.00
34506;BME280;20748;42.632;23.198;2023-05-02T02:47:20;92364.34;;;6.17;100.00
34506;BME280;20748;42.632;23.198;2023-05-02T02:50:08;92356.03;;;6.15;100.00
34506;BME280;20748;42.632;23.198;2023-05-02T02:52:52;92360.47;;;6.10;100.00
34506;BME280;20748;42.632;23.198;2023-05-02T02:55:35;92361.50;;;6.09;100.00
34506;BME280;20748;42.632;23.198;2023-05-02T02:58:18;92355.78;;;6.12;100.00
34506;BME280;20748;42.632;23.198;2023-05-02T03:00:51;92344.38;;;5.97;100.00
34506;BME280;20748;42.632;23.198;2023-05-02T03:03:25;92355.00;;;6.11;100.00
34506;BME280;20748;42.632;23.198;2023-05-02T03:05:59;92364.06;;;6.14;100.00
34506;BME280;20748;42.632;23.198;2023-05-02T03:08:38;92359.94;;;6.08;100.00
34506;BME280;20748;42.632;23.198;2023-05-02T03:11:11;92364.09;;;6.03;100.00
34506;BME280;20748;42.632;23.198;2023-05-02T03:13:43;92361.72;;;6.02;100.00
34506;BME280;20748;42.632;23.198;2023-05-02T03:16:33;92359.13;;;5.86;100.00
34506;BME280;20748;42.632;23.198;2023-05-02T03:19:07;92357.09;;;5.88;100.00
34506;BME280;20748;42.632;23.198;2023-05-02T03:21:40;92356.03;;;5.95;100.00
34506;BME280;20748;42.632;23.198;2023-05-02T03:24:21;92363.28;;;5.82;100.00
34506;BME280;20748;42.632;23.198;2023-05-02T03:26:54;92364.06;;;5.77;100.00
34506;BME280;20748;42.632;23.198;2023-05-02T03:29:30;92365.88;;;5.82;100.00
34506;BME280;20748;42.632;23.198;2023-05-02T03:32:02;92356.28;;;5.62;100.00
34506;BME280;20748;42.632;23.198;2023-05-02T03:34:36;92359.41;;;5.64;100.00
34506;BME280;20748;42.632;23.198;2023-05-02T03:37:08;92358.63;;;5.74;100.00
34506;BME280;20748;42.632;23.198;2023-05-02T03:39:41;92359.13;;;5.76;100.00
34506;BME280;20748;42.632;23.198;2023-05-02T03:42:13;92364.59;;;5.80;100.00
34506;BME280;20748;42.632;23.198;2023-05-02T03:44:45;92362.75;;;5.70;100.00
34506;BME280;20748;42.632;23.198;2023-05-02T03:47:18;92368.19;;;5.58;100.00
34506;BME280;20748;42.632;23.198;2023-05-02T03:49:52;92363.78;;;5.69;100.00
34506;BME280;20748;42.632;23.198;2023-05-02T03:52:25;92364.84;;;5.78;100.00
34506;BME280;20748;42.632;23.198;2023-05-02T03:54:59;92364.84;;;5.73;100.00
34506;BME280;20748;42.632;23.198;2023-05-02T03:57:32;92358.13;;;5.77;100.00
34506;BME280;20748;42.632;23.198;2023-05-02T04:00:06;92359.38;;;5.85;100.00
34506;BME280;20748;42.632;23.198;2023-05-02T04:02:50;92360.44;;;5.84;100.00
34506;BME280;20748;42.632;23.198;2023-05-02T04:05:26;92362.00;;;5.80;100.00
34506;BME280;20748;42.632;23.198;2023-05-02T04:08:00;92367.94;;;5.80;100.00
34506;BME280;20748;42.632;23.198;2023-05-02T04:10:33;92360.97;;;5.81;100.00
34506;BME280;20748;42.632;23.198;2023-05-02T04:13:08;92365.34;;;5.80;100.00
34506;BME280;20748;42.632;23.198;2023-05-02T04:15:44;92361.47;;;5.83;100.00
34506;BME280;20748;42.632;23.198;2023-05-02T04:18:17;92360.97;;;5.81;100.00
34506;BME280;20748;42.632;23.198;2023-05-02T04:20:50;92363.56;;;5.86;100.00
34506;BME280;20748;42.632;23.198;2023-05-02T04:23:24;92366.41;;;5.89;100.00
34506;BME280;20748;42.632;23.198;2023-05-02T04:26:01;92364.81;;;5.99;100.00
34506;BME280;20748;42.632;23.198;2023-05-02T04:28:43;92362.00;;;6.16;100.00
34506;BME280;20748;42.632;23.198;2023-05-02T04:31:19;92352.38;;;6.32;100.00
34506;BME280;20748;42.632;23.198;2023-05-02T04:33:52;92366.34;;;6.52;100.00
34506;BME280;20748;42.632;23.198;2023-05-02T04:36:29;92364.75;;;6.71;100.00
34506;BME280;20748;42.632;23.198;2023-05-02T04:39:01;92364.69;;;6.82;100.00
34506;BME280;20748;42.632;23.198;2023-05-02T04:41:36;92369.56;;;6.99;100.00
34506;BME280;20748;42.632;23.198;2023-05-02T04:44:11;92370.53;;;7.14;100.00
34506;BME280;20748;42.632;23.198;2023-05-02T04:46:43;92367.38;;;7.27;100.00
34506;BME280;20748;42.632;23.198;2023-05-02T04:49:16;92369.09;;;7.42;100.00
34506;BME280;20748;42.632;23.198;2023-05-02T04:51:50;92367.72;;;7.55;100.00
34506;BME280;20748;42.632;23.198;2023-05-02T04:54:23;92371.75;;;7.72;100.00
34506;BME280;20748;42.632;23.198;2023-05-02T04:56:56;92375.88;;;7.78;100.00
34506;BME280;20748;42.632;23.198;2023-05-02T04:59:30;92380.00;;;7.84;100.00
34506;BME280;20748;42.632;23.198;2023-05-02T05:02:05;92378.34;;;7.99;100.00
34506;BME280;20748;42.632;23.198;2023-05-02T05:04:38;92377.75;;;8.07;100.00
34506;BME280;20748;42.632;23.198;2023-05-02T05:07:12;92380.22;;;8.23;100.00
34506;BME280;20748;42.632;23.198;2023-05-02T05:09:44;92386.78;;;8.44;100.00
34506;BME280;20748;42.632;23.198;2023-05-02T05:12:16;92383.38;;;8.49;100.00
34506;BME280;20748;42.632;23.198;2023-05-02T05:14:49;92391.59;;;8.62;100.00
34506;BME280;20748;42.632;23.198;2023-05-02T05:17:22;92386.56;;;8.70;100.00
34506;BME280;20748;42.632;23.198;2023-05-02T05:19:55;92383.91;;;8.76;100.00
34506;BME280;20748;42.632;23.198;2023-05-02T05:22:28;92396.56;;;8.82;100.00
34506;BME280;20748;42.632;23.198;2023-05-02T05:25:01;92381.84;;;8.97;100.00
34506;BME280;20748;42.632;23.198;2023-05-02T05:27:36;92382.94;;;9.15;100.00
34506;BME280;20748;42.632;23.198;2023-05-02T05:30:10;92400.72;;;9.32;100.00
34506;BME280;20748;42.632;23.198;2023-05-02T05:32:43;92399.59;;;9.38;100.00
34506;BME280;20748;42.632;23.198;2023-05-02T05:35:16;92401.91;;;9.59;100.00
34506;BME280;20748;42.632;23.198;2023-05-02T05:37:49;92405.25;;;9.65;100.00
34506;BME280;20748;42.632;23.198;2023-05-02T05:40:22;92391.09;;;9.71;100.00
34506;BME280;20748;42.632;23.198;2023-05-02T05:42:59;92396.78;;;9.92;100.00
34506;BME280;20748;42.632;23.198;2023-05-02T05:45:37;92400.28;;;10.02;100.00
34506;BME280;20748;42.632;23.198;2023-05-02T05:48:10;92394.63;;;10.14;100.00
34506;BME280;20748;42.632;23.198;2023-05-02T05:50:47;92400.44;;;10.11;100.00
34506;BME280;20748;42.632;23.198;2023-05-02T05:53:21;92406.28;;;10.36;100.00
34506;BME280;20748;42.632;23.198;2023-05-02T05:55:54;92405.69;;;10.58;98.13
34506;BME280;20748;42.632;23.198;2023-05-02T05:58:27;92414.56;;;10.57;95.42
34506;BME280;20748;42.632;23.198;2023-05-02T06:01:00;92416.63;;;10.74;94.86
34506;BME280;20748;42.632;23.198;2023-05-02T06:03:33;92421.47;;;10.81;93.76
34506;BME280;20748;42.632;23.198;2023-05-02T06:06:06;92412.00;;;10.85;92.62
34506;BME280;20748;42.632;23.198;2023-05-02T06:08:39;92410.34;;;11.03;91.60
34506;BME280;20748;42.632;23.198;2023-05-02T06:11:11;92415.78;;;11.35;90.99
34506;BME280;20748;42.632;23.198;2023-05-02T06:13:44;92413.84;;;11.40;88.15
34506;BME280;20748;42.632;23.198;2023-05-02T06:16:17;92416.22;;;11.65;88.74
34506;BME280;20748;42.632;23.198;2023-05-02T06:18:50;92414.28;;;11.71;87.11
34506;BME280;20748;42.632;23.198;2023-05-02T06:21:23;92413.56;;;11.79;86.18
34506;BME280;20748;42.632;23.198;2023-05-02T06:23:56;92412.09;;;11.87;85.36
34506;BME280;20748;42.632;23.198;2023-05-02T06:26:28;92406.13;;;12.09;86.46
34506;BME280;20748;42.632;23.198;2023-05-02T06:29:01;92407.31;;;12.26;83.76
34506;BME280;20748;42.632;23.198;2023-05-02T06:31:34;92413.25;;;12.40;81.96
34506;BME280;20748;42.632;23.198;2023-05-02T06:34:06;92413.56;;;12.39;81.06
34506;BME280;20748;42.632;23.198;2023-05-02T06:36:38;92410.56;;;12.54;81.94
34506;BME280;20748;42.632;23.198;2023-05-02T06:39:11;92421.13;;;12.72;81.81
34506;BME280;20748;42.632;23.198;2023-05-02T06:41:44;92413.06;;;12.91;81.12
34506;BME280;20748;42.632;23.198;2023-05-02T06:44:20;92418.22;;;13.05;78.80
34506;BME280;20748;42.632;23.198;2023-05-02T06:47:19;92415.38;;;12.93;76.39
34506;BME280;20748;42.632;23.198;2023-05-02T06:50:00;92413.28;;;13.12;78.17
34506;BME280;20748;42.632;23.198;2023-05-02T06:52:34;92413.19;;;13.26;75.96
34506;BME280;20748;42.632;23.198;2023-05-02T06:55:07;92412.44;;;13.43;74.53
34506;BME280;20748;42.632;23.198;2023-05-02T06:57:40;92407.41;;;13.47;74.96
34506;BME280;20748;42.632;23.198;2023-05-02T07:00:15;92406.81;;;13.50;71.96
34506;BME280;20748;42.632;23.198;2023-05-02T07:02:48;92400.97;;;13.62;72.19
34506;BME280;20748;42.632;23.198;2023-05-02T07:05:20;92417.78;;;13.79;71.01
34506;BME280;20748;42.632;23.198;2023-05-02T07:07:52;92418.25;;;13.81;70.06
34506;BME280;20748;42.632;23.198;2023-05-02T07:10:25;92414.72;;;14.21;70.99
34506;BME280;20748;42.632;23.198;2023-05-02T07:12:58;92414.03;;;14.50;69.01
34506;BME280;20748;42.632;23.198;2023-05-02T07:15:30;92417.75;;;14.58;66.72
34506;BME280;20748;42.632;23.198;2023-05-02T07:18:03;92420.06;;;14.77;67.80
34506;BME280;20748;42.632;23.198;2023-05-02T07:20:35;92422.53;;;14.65;66.21
34506;BME280;20748;42.632;23.198;2023-05-02T07:23:09;92422.66;;;14.86;65.54
34506;BME280;20748;42.632;23.198;2023-05-02T07:25:42;92424.53;;;14.59;64.39
34506;BME280;20748;42.632;23.198;2023-05-02T07:28:14;92428.38;;;14.80;64.01
34506;BME280;20748;42.632;23.198;2023-05-02T07:30:47;92429.53;;;15.09;62.30
34506;BME280;20748;42.632;23.198;2023-05-02T07:33:19;92423.75;;;15.24;60.52
34506;BME280;20748;42.632;23.198;2023-05-02T07:35:51;92426.28;;;15.42;62.11
34506;BME280;20748;42.632;23.198;2023-05-02T07:38:26;92433.06;;;15.73;61.54
34506;BME280;20748;42.632;23.198;2023-05-02T07:40:59;92425.84;;;15.91;60.75
34506;BME280;20748;42.632;23.198;2023-05-02T07:43:32;92438.78;;;16.05;58.39
34506;BME280;20748;42.632;23.198;2023-05-02T07:46:04;92436.97;;;16.18;56.19
34506;BME280;20748;42.632;23.198;2023-05-02T07:48:37;92434.03;;;16.20;58.35
34506;BME280;20748;42.632;23.198;2023-05-02T07:51:10;92434.81;;;16.20;58.03
34506;BME280;20748;42.632;23.198;2023-05-02T07:53:42;92438.16;;;16.42;53.29
34506;BME280;20748;42.632;23.198;2023-05-02T07:56:15;92436.41;;;16.68;55.33
34506;BME280;20748;42.632;23.198;2023-05-02T07:58:48;92429.97;;;16.90;52.34
34506;BME280;20748;42.632;23.198;2023-05-02T08:01:22;92434.53;;;16.68;53.11
34506;BME280;20748;42.632;23.198;2023-05-02T08:03:54;92432.47;;;16.74;52.17
34506;BME280;20748;42.632;23.198;2023-05-02T08:06:27;92435.97;;;17.12;53.92
34506;BME280;20748;42.632;23.198;2023-05-02T08:08:59;92429.81;;;17.08;50.99
34506;BME280;20748;42.632;23.198;2023-05-02T08:11:33;92427.09;;;16.83;52.31
34506;BME280;20748;42.632;23.198;2023-05-02T08:14:05;92426.22;;;17.37;54.97
34506;BME280;20748;42.632;23.198;2023-05-02T08:16:37;92430.59;;;17.45;50.69
34506;BME280;20748;42.632;23.198;2023-05-02T08:19:10;92438.84;;;17.69;50.31
34506;BME280;20748;42.632;23.198;2023-05-02T08:21:42;92429.03;;;17.69;51.32
34506;BME280;20748;42.632;23.198;2023-05-02T08:24:15;92431.34;;;17.71;51.71
34506;BME280;20748;42.632;23.198;2023-05-02T08:26:48;92433.06;;;18.17;49.19
34506;BME280;20748;42.632;23.198;2023-05-02T08:29:20;92432.28;;;18.16;48.38
34506;BME280;20748;42.632;23.198;2023-05-02T08:31:52;92438.34;;;18.45;48.50
34506;BME280;20748;42.632;23.198;2023-05-02T08:34:25;92433.66;;;18.67;46.23
34506;BME280;20748;42.632;23.198;2023-05-02T08:36:57;92431.72;;;18.80;46.27
34506;BME280;20748;42.632;23.198;2023-05-02T08:39:31;92437.78;;;18.97;46.51
34506;BME280;20748;42.632;23.198;2023-05-02T08:42:06;92428.97;;;19.05;45.57
34506;BME280;20748;42.632;23.198;2023-05-02T08:44:38;92434.56;;;19.03;45.67
34506;BME280;20748;42.632;23.198;2023-05-02T08:47:12;92428.47;;;19.15;45.16
34506;BME280;20748;42.632;23.198;2023-05-02T08:49:46;92434.56;;;19.19;43.60
34506;BME280;20748;42.632;23.198;2023-05-02T08:52:20;92425.19;;;19.22;44.28
34506;BME280;20748;42.632;23.198;2023-05-02T08:54:53;92420.34;;;19.24;46.35
34506;BME280;20748;42.632;23.198;2023-05-02T08:57:28;92423.75;;;19.09;44.13
34506;BME280;20748;42.632;23.198;2023-05-02T09:00:01;92419.81;;;19.18;45.54
34506;BME280;20748;42.632;23.198;2023-05-02T09:02:53;92422.72;;;19.13;45.25
34506;BME280;20748;42.632;23.198;2023-05-02T09:05:32;92421.25;;;18.55;48.67
34506;BME280;20748;42.632;23.198;2023-05-02T09:08:08;92432.88;;;18.09;47.29
34506;BME280;20748;42.632;23.198;2023-05-02T09:10:40;92432.13;;;17.84;47.29
34506;BME280;20748;42.632;23.198;2023-05-02T09:13:34;92424.53;;;17.70;48.65
34506;BME280;20748;42.632;23.198;2023-05-02T09:16:08;92424.56;;;17.45;48.90
34506;BME280;20748;42.632;23.198;2023-05-02T09:18:42;92425.78;;;17.35;48.96
34506;BME280;20748;42.632;23.198;2023-05-02T09:21:16;92434.75;;;17.22;47.12
34506;BME280;20748;42.632;23.198;2023-05-02T09:23:53;92428.53;;;17.14;46.82
34506;BME280;20748;42.632;23.198;2023-05-02T09:26:28;92429.50;;;17.34;47.15
34506;BME280;20748;42.632;23.198;2023-05-02T09:29:04;92424.88;;;17.56;46.56
34506;BME280;20748;42.632;23.198;2023-05-02T09:31:36;92425.75;;;17.60;46.68
34506;BME280;20748;42.632;23.198;2023-05-02T09:34:12;92421.72;;;17.50;45.96
34506;BME280;20748;42.632;23.198;2023-05-02T09:36:47;92432.13;;;17.84;45.64
34506;BME280;20748;42.632;23.198;2023-05-02T09:39:23;92427.13;;;18.07;46.57
34506;BME280;20748;42.632;23.198;2023-05-02T09:41:58;92428.06;;;18.28;45.17
34506;BME280;20748;42.632;23.198;2023-05-02T09:44:36;92427.03;;;18.45;44.63
34506;BME280;20748;42.632;23.198;2023-05-02T09:47:09;92413.84;;;18.61;45.59
34506;BME280;20748;42.632;23.198;2023-05-02T09:49:43;92416.84;;;18.75;44.97
34506;BME280;20748;42.632;23.198;2023-05-02T09:52:17;92417.53;;;18.72;44.38
34506;BME280;20748;42.632;23.198;2023-05-02T09:54:50;92411.41;;;18.84;44.75
34506;BME280;20748;42.632;23.198;2023-05-02T09:57:38;92406.28;;;18.75;45.54
34506;BME280;20748;42.632;23.198;2023-05-02T10:00:13;92408.25;;;18.78;44.42
34506;BME280;20748;42.632;23.198;2023-05-02T10:02:48;92402.66;;;18.80;45.71
34506;BME280;20748;42.632;23.198;2023-05-02T10:05:22;92410.44;;;19.05;44.66
34506;BME280;20748;42.632;23.198;2023-05-02T10:07:55;92405.88;;;18.89;43.55
34506;BME280;20748;42.632;23.198;2023-05-02T10:10:27;92399.69;;;19.14;45.02
34506;BME280;20748;42.632;23.198;2023-05-02T10:13:00;92399.94;;;19.25;44.49
34506;BME280;20748;42.632;23.198;2023-05-02T10:15:38;92389.72;;;19.39;43.22
34506;BME280;20748;42.632;23.198;2023-05-02T10:18:14;92395.16;;;19.47;45.08
34506;BME280;20748;42.632;23.198;2023-05-02T10:20:55;92397.56;;;19.36;41.92
34506;BME280;20748;42.632;23.198;2023-05-02T10:23:28;92399.31;;;19.48;42.11
34506;BME280;20748;42.632;23.198;2023-05-02T10:26:01;92385.00;;;19.32;41.73
34506;BME280;20748;42.632;23.198;2023-05-02T10:28:33;92384.97;;;19.49;41.98
34506;BME280;20748;42.632;23.198;2023-05-02T10:31:08;92373.28;;;19.85;43.20
34506;BME280;20748;42.632;23.198;2023-05-02T10:33:41;92383.38;;;19.96;41.04
34506;BME280;20748;42.632;23.198;2023-05-02T10:36:14;92387.59;;;20.20;39.74
34506;BME280;20748;42.632;23.198;2023-05-02T10:38:47;92377.78;;;20.21;39.52
34506;BME280;20748;42.632;23.198;2023-05-02T10:41:22;92384.94;;;19.65;40.13
34506;BME280;20748;42.632;23.198;2023-05-02T10:43:55;92378.13;;;19.99;40.74
34506;BME280;20748;42.632;23.198;2023-05-02T10:46:32;92376.50;;;19.95;40.07
34506;BME280;20748;42.632;23.198;2023-05-02T10:49:06;92377.13;;;19.52;40.48
34506;BME280;20748;42.632;23.198;2023-05-02T10:51:40;92377.22;;;19.40;40.72
34506;BME280;20748;42.632;23.198;2023-05-02T10:54:20;92380.91;;;19.35;39.96
34506;BME280;20748;42.632;23.198;2023-05-02T10:57:04;92379.03;;;19.19;40.17
34506;BME280;20748;42.632;23.198;2023-05-02T10:59:38;92372.88;;;19.48;38.88
34506;BME280;20748;42.632;23.198;2023-05-02T11:02:48;92376.41;;;19.71;40.14
34506;BME280;20748;42.632;23.198;2023-05-02T11:05:23;92371.16;;;19.55;38.66
34506;BME280;20748;42.632;23.198;2023-05-02T11:08:31;92377.41;;;19.47;39.71
34506;BME280;20748;42.632;23.198;2023-05-02T11:11:37;92367.19;;;19.65;37.10
34506;BME280;20748;42.632;23.198;2023-05-02T11:14:40;92364.56;;;19.85;37.53
34506;BME280;20748;42.632;23.198;2023-05-02T11:17:05;92358.00;;;20.15;37.44
34506;BME280;20748;42.632;23.198;2023-05-02T11:23:19;92338.00;;;19.97;38.11
34506;BME280;20748;42.632;23.198;2023-05-02T11:25:54;92350.97;;;20.22;36.83
34506;BME280;20748;42.632;23.198;2023-05-02T11:28:41;92348.66;;;20.21;37.49
34506;BME280;20748;42.632;23.198;2023-05-02T11:34:21;92338.06;;;20.64;35.18
34506;BME280;20748;42.632;23.198;2023-05-02T11:36:53;92337.56;;;20.58;35.65
34506;BME280;20748;42.632;23.198;2023-05-02T11:39:26;92327.81;;;20.86;34.79
34506;BME280;20748;42.632;23.198;2023-05-02T11:41:59;92326.34;;;20.88;36.25
34506;BME280;20748;42.632;23.198;2023-05-02T11:44:31;92328.94;;;20.85;35.58
34506;BME280;20748;42.632;23.198;2023-05-02T11:47:04;92326.41;;;20.69;35.28
34506;BME280;20748;42.632;23.198;2023-05-02T11:49:36;92324.09;;;20.44;36.20
34506;BME280;20748;42.632;23.198;2023-05-02T11:52:09;92324.03;;;20.20;35.19
34506;BME280;20748;42.632;23.198;2023-05-02T11:54:42;92319.25;;;20.06;36.40
34506;BME280;20748;42.632;23.198;2023-05-02T11:57:14;92311.81;;;20.35;36.89
34506;BME280;20748;42.632;23.198;2023-05-02T11:59:51;92311.31;;;20.49;36.23
34506;BME280;20748;42.632;23.198;2023-05-02T12:02:34;92307.94;;;20.76;36.01
34506;BME280;20748;42.632;23.198;2023-05-02T12:05:08;92291.34;;;20.79;36.32
34506;BME280;20748;42.632;23.198;2023-05-02T12:07:42;92289.53;;;20.83;36.25
34506;BME280;20748;42.632;23.198;2023-05-02T12:10:16;92292.19;;;20.83;34.99
34506;BME280;20748;42.632;23.198;2023-05-02T12:12:48;92279.31;;;20.62;36.16
34506;BME280;20748;42.632;23.198;2023-05-02T12:15:22;92275.00;;;20.77;35.34
34506;BME280;20748;42.632;23.198;2023-05-02T12:17:54;92268.34;;;21.10;37.60
34506;BME280;20748;42.632;23.198;2023-05-02T12:20:27;92268.59;;;21.28;35.61
34506;BME280;20748;42.632;23.198;2023-05-02T12:22:59;92264.78;;;21.26;35.22
34506;BME280;20748;42.632;23.198;2023-05-02T12:25:37;92260.16;;;21.50;35.22
34506;BME280;20748;42.632;23.198;2023-05-02T12:28:10;92265.63;;;21.33;36.71
34506;BME280;20748;42.632;23.198;2023-05-02T12:30:45;92257.94;;;21.25;35.93
34506;BME280;20748;42.632;23.198;2023-05-02T12:33:18;92259.56;;;21.06;35.26
34506;BME280;20748;42.632;23.198;2023-05-02T12:35:51;92244.63;;;20.94;36.11
34506;BME280;20748;42.632;23.198;2023-05-02T12:38:24;92235.03;;;20.62;36.37
34506;BME280;20748;42.632;23.198;2023-05-02T12:40:57;92238.97;;;20.96;35.73
34506;BME280;20748;42.632;23.198;2023-05-02T12:43:44;92238.81;;;20.85;34.61
34506;BME280;20748;42.632;23.198;2023-05-02T12:46:17;92236.75;;;20.28;35.90
34506;BME280;20748;42.632;23.198;2023-05-02T12:49:00;92235.34;;;19.91;36.89
34506;BME280;20748;42.632;23.198;2023-05-02T12:51:33;92231.09;;;19.66;36.71
34506;BME280;20748;42.632;23.198;2023-05-02T12:54:05;92220.16;;;19.68;38.53
34506;BME280;20748;42.632;23.198;2023-05-02T12:56:39;92214.78;;;19.84;37.46
34506;BME280;20748;42.632;23.198;2023-05-02T12:59:25;92209.63;;;19.91;37.17
34506;BME280;20748;42.632;23.198;2023-05-02T13:01:58;92202.63;;;20.22;38.23
34506;BME280;20748;42.632;23.198;2023-05-02T13:04:34;92203.47;;;20.53;37.41
34506;BME280;20748;42.632;23.198;2023-05-02T13:07:07;92203.44;;;20.50;37.61
34506;BME280;20748;42.632;23.198;2023-05-02T13:09:39;92197.94;;;20.62;35.86
34506;BME280;20748;42.632;23.198;2023-05-02T13:12:12;92206.47;;;20.52;37.02
34506;BME280;20748;42.632;23.198;2023-05-02T13:14:45;92199.25;;;20.25;36.56
34506;BME280;20748;42.632;23.198;2023-05-02T13:17:17;92202.28;;;20.24;36.68
34506;BME280;20748;42.632;23.198;2023-05-02T13:19:50;92214.97;;;20.38;38.18
34506;BME280;20748;42.632;23.198;2023-05-02T13:22:33;92203.75;;;20.72;35.08
34506;BME280;20748;42.632;23.198;2023-05-02T13:25:07;92206.63;;;21.13;35.76
34506;BME280;20748;42.632;23.198;2023-05-02T13:27:40;92191.41;;;21.41;35.68
34506;BME280;20748;42.632;23.198;2023-05-02T13:30:13;92195.91;;;21.37;35.58
34506;BME280;20748;42.632;23.198;2023-05-02T13:32:45;92191.31;;;21.68;35.75
34506;BME280;20748;42.632;23.198;2023-05-02T13:35:17;92180.81;;;21.75;32.37
34506;BME280;20748;42.632;23.198;2023-05-02T13:37:50;92187.66;;;22.14;34.14